createdAt,value
2022-11-15T00:02:47.476Z,73.33
2022-11-15T00:05:40.324Z,67.33
2022-11-15T00:08:37.870Z,65.43
2022-11-15T00:11:28.499Z,67.23
2022-11-15T00:14:21.986Z,60.87
2022-11-15T00:17:12.878Z,60.37
2022-11-15T00:20:00.959Z,63.90
2022-11-15T00:22:52.212Z,66.27
2022-11-15T00:25:45.158Z,67.63
2022-11-15T00:28:42.652Z,66.50
2022-11-15T00:31:31.075Z,63.27
2022-11-15T00:34:35.300Z,64.67
2022-11-15T00:37:30.444Z,66.73
2022-11-15T00:40:19.046Z,73.93
2022-11-15T00:43:13.428Z,71.60
2022-11-15T00:46:06.512Z,61.63
2022-11-15T00:48:55.362Z,67.93
2022-11-15T00:51:44.032Z,67.10
2022-11-15T00:54:38.972Z,74.63
2022-11-15T00:57:32.167Z,71.83
2022-11-15T01:00:24.105Z,78.10
2022-11-15T01:03:13.134Z,68.53
2022-11-15T01:06:04.964Z,68.97
2022-11-15T01:08:54.112Z,79.43
2022-11-15T01:11:43.072Z,71.50
2022-11-15T01:14:39.932Z,73.10
2022-11-15T01:17:33.583Z,66.77
2022-11-15T01:20:22.756Z,71.00
2022-11-15T01:23:11.702Z,80.10
2022-11-15T01:26:01.482Z,74.43
2022-11-15T01:28:55.302Z,76.50
2022-11-15T01:31:51.335Z,80.90
2022-11-15T01:34:55.004Z,76.03
2022-11-15T01:37:46.379Z,78.70
2022-11-15T01:40:36.515Z,80.37
2022-11-15T01:43:34.542Z,69.20
2022-11-15T01:46:46.274Z,66.10
2022-11-15T01:49:38.337Z,65.70
2022-11-15T01:52:30.725Z,68.63
2022-11-15T01:55:24.480Z,70.07
2022-11-15T01:58:21.120Z,70.43
2022-11-15T02:01:14.845Z,64.57
2022-11-15T02:04:09.248Z,72.33
2022-11-15T02:06:59.775Z,73.10
2022-11-15T02:09:55.194Z,69.77
2022-11-15T02:12:46.850Z,69.43
2022-11-15T02:15:42.180Z,68.03
2022-11-15T02:18:40.288Z,66.67
2022-11-15T02:21:39.180Z,61.47
2022-11-15T02:25:18.504Z,67.37
2022-11-15T02:28:34.463Z,62.57
2022-11-15T02:31:33.098Z,61.10
2022-11-15T02:34:31.007Z,66.83
2022-11-15T02:37:36.499Z,66.30
2022-11-15T02:40:32.590Z,64.63
2022-11-15T02:43:47.577Z,60.20
2022-11-15T02:47:02.710Z,56.37
2022-11-15T02:49:52.285Z,58.13
2022-11-15T02:52:40.069Z,58.17
2022-11-15T02:55:32.501Z,57.17
2022-11-15T02:59:04.793Z,65.80
2022-11-15T03:02:06.952Z,60.00
2022-11-15T03:05:02.183Z,66.73
2022-11-15T03:08:02.104Z,57.30
2022-11-15T03:11:07.481Z,68.73
2022-11-15T03:14:02.713Z,59.07
2022-11-15T03:17:00.631Z,66.77
2022-11-15T03:19:57.522Z,65.80
2022-11-15T03:22:48.570Z,58.60
2022-11-15T03:25:48.251Z,71.13
2022-11-15T03:28:51.166Z,64.70
2022-11-15T03:31:51.926Z,60.90
2022-11-15T03:35:00.284Z,63.80
2022-11-15T03:37:52.881Z,65.93
2022-11-15T03:40:45.733Z,62.43
2022-11-15T03:43:44.519Z,63.30
2022-11-15T03:46:39.490Z,64.30
2022-11-15T03:49:34.210Z,63.87
2022-11-15T03:52:37.816Z,55.20
2022-11-15T03:55:26.598Z,61.33
2022-11-15T03:58:23.577Z,67.03
2022-11-15T04:01:19.287Z,60.03
2022-11-15T04:04:08.353Z,61.40
2022-11-15T04:07:07.213Z,57.67
2022-11-15T04:10:10.505Z,64.73
2022-11-15T04:13:00.374Z,66.80
2022-11-15T04:15:51.586Z,60.27
2022-11-15T04:18:42.229Z,66.77
2022-11-15T04:21:49.575Z,72.43
2022-11-15T04:24:39.802Z,69.40
2022-11-15T04:27:34.966Z,75.83
2022-11-15T04:30:22.265Z,67.63
2022-11-15T04:33:11.203Z,75.53
2022-11-15T04:36:20.633Z,81.77
2022-11-15T04:39:09.723Z,76.23
2022-11-15T04:41:58.554Z,82.27
2022-11-15T04:44:54.976Z,72.97
2022-11-15T04:47:45.952Z,80.93
2022-11-15T04:50:39.696Z,89.67
2022-11-15T04:53:30.852Z,82.17
2022-11-15T04:56:28.662Z,90.10
2022-11-15T04:59:16.523Z,86.90
2022-11-15T05:02:23.456Z,83.60
2022-11-15T05:05:15.452Z,77.00
2022-11-15T05:08:03.464Z,79.53
2022-11-15T05:10:51.434Z,87.17
2022-11-15T05:13:44.625Z,88.80
2022-11-15T05:16:34.476Z,87.87
2022-11-15T05:19:37.877Z,82.07
2022-11-15T05:22:38.529Z,78.67
2022-11-15T05:25:30.968Z,89.10
2022-11-15T05:28:21.611Z,83.90
2022-11-15T05:31:11.813Z,78.93
2022-11-15T05:34:11.386Z,79.73
2022-11-15T05:37:03.027Z,77.60
2022-11-15T05:39:53.404Z,87.10
2022-11-15T05:42:47.082Z,81.47
2022-11-15T05:45:45.499Z,91.63
2022-11-15T05:48:36.994Z,86.80
2022-11-15T05:51:26.847Z,80.93
2022-11-15T05:54:22.209Z,99.17
2022-11-15T05:57:11.547Z,94.33
2022-11-15T06:00:01.147Z,83.80
2022-11-15T06:02:51.948Z,80.17
2022-11-15T06:05:41.284Z,71.60
2022-11-15T06:08:38.663Z,69.10
2022-11-15T06:11:32.118Z,69.30
2022-11-15T06:14:19.739Z,71.40
2022-11-15T06:17:11.538Z,63.77
2022-11-15T06:20:00.272Z,66.77
2022-11-15T06:22:55.389Z,64.93
2022-11-15T06:25:43.128Z,71.47
2022-11-15T06:28:37.315Z,74.43
2022-11-15T06:31:35.174Z,73.07
2022-11-15T06:34:25.708Z,83.07
2022-11-15T06:37:19.488Z,71.97
2022-11-15T06:40:20.982Z,76.70
2022-11-15T06:43:09.397Z,85.67
2022-11-15T06:46:05.105Z,93.20
2022-11-15T06:48:53.425Z,72.93
2022-11-15T06:51:43.693Z,76.13
2022-11-15T06:54:41.945Z,82.10
2022-11-15T06:57:32.075Z,80.93
2022-11-15T07:00:21.932Z,72.63
2022-11-15T07:03:10.194Z,82.67
2022-11-15T07:06:01.553Z,84.17
2022-11-15T07:08:54.178Z,85.43
2022-11-15T07:11:40.579Z,84.63
2022-11-15T07:14:27.186Z,101.30
2022-11-15T07:17:14.012Z,95.40
2022-11-15T07:20:02.013Z,93.10
2022-11-15T07:22:51.349Z,88.37
2022-11-15T07:25:37.785Z,87.37
2022-11-15T07:28:24.350Z,85.60
2022-11-15T07:31:11.373Z,81.27
2022-11-15T07:33:57.885Z,79.67
2022-11-15T07:36:45.958Z,79.93
2022-11-15T07:39:32.704Z,96.47
2022-11-15T07:42:36.394Z,89.27
2022-11-15T07:45:24.004Z,93.37
2022-11-15T07:48:10.685Z,88.07
2022-11-15T07:50:57.045Z,85.97
2022-11-15T07:53:48.152Z,96.30
2022-11-15T07:56:34.552Z,89.33
2022-11-15T07:59:21.544Z,85.67
2022-11-15T08:02:07.989Z,100.00
2022-11-15T08:04:54.412Z,93.90
2022-11-15T08:07:41.259Z,93.73
2022-11-15T08:10:29.656Z,95.80
2022-11-15T08:13:17.366Z,88.63
2022-11-15T08:16:06.505Z,86.93
2022-11-15T08:18:54.786Z,90.50
2022-11-15T08:21:41.266Z,97.87
2022-11-15T08:24:28.173Z,86.47
2022-11-15T08:27:16.873Z,97.67
2022-11-15T08:30:03.756Z,96.07
2022-11-15T08:32:54.117Z,94.97
2022-11-15T08:35:40.728Z,102.37
2022-11-15T08:38:27.171Z,89.87
2022-11-15T08:41:16.645Z,94.37
2022-11-15T08:44:04.569Z,87.33
2022-11-15T08:46:52.730Z,91.37
2022-11-15T08:49:39.421Z,82.70
2022-11-15T08:52:26.234Z,89.90
2022-11-15T08:55:12.557Z,81.17
2022-11-15T08:57:59.734Z,86.33
2022-11-15T09:00:47.515Z,91.83
2022-11-15T09:03:33.838Z,89.33
2022-11-15T09:06:20.688Z,91.47
2022-11-15T09:09:07.477Z,97.33
2022-11-15T09:11:58.034Z,93.27
2022-11-15T09:14:47.540Z,82.37
2022-11-15T09:17:35.589Z,97.70
2022-11-15T09:20:22.492Z,84.53
2022-11-15T09:23:09.173Z,84.70
2022-11-15T09:26:01.131Z,74.63
2022-11-15T09:28:47.781Z,78.17
2022-11-15T09:31:35.384Z,83.80
2022-11-15T09:34:23.679Z,78.37
2022-11-15T09:37:10.257Z,76.97
2022-11-15T09:39:56.882Z,81.47
2022-11-15T09:42:57.453Z,84.93
2022-11-15T09:45:53.574Z,96.07
2022-11-15T09:48:55.140Z,92.33
2022-11-15T09:51:48.024Z,86.43
2022-11-15T09:54:52.142Z,86.23
2022-11-15T09:57:20.477Z,87.93
2022-11-15T10:03:10.849Z,98.67
2022-11-15T10:05:42.275Z,91.47
2022-11-15T10:08:30.257Z,93.10
2022-11-15T10:11:30.611Z,88.33
2022-11-15T10:13:50.480Z,92.03
2022-11-15T10:16:37.919Z,103.13
2022-11-15T10:19:11.240Z,91.80
2022-11-15T10:21:46.209Z,94.87
2022-11-15T10:24:21.621Z,89.53
2022-11-15T10:26:52.501Z,93.73
2022-11-15T10:29:26.448Z,100.03
2022-11-15T10:31:55.371Z,96.50
2022-11-15T10:34:25.983Z,87.07
2022-11-15T10:36:58.072Z,95.13
2022-11-15T10:39:28.376Z,96.67
2022-11-15T10:41:56.875Z,91.73
2022-11-15T10:44:29.678Z,95.60
2022-11-15T10:47:26.808Z,89.30
2022-11-15T10:50:00.140Z,85.80
2022-11-15T10:52:29.230Z,98.57
2022-11-15T10:55:02.503Z,96.60
2022-11-15T10:57:32.361Z,83.50
2022-11-15T11:00:02.789Z,85.13
2022-11-15T11:02:33.545Z,97.00
2022-11-15T11:05:02.305Z,82.40
2022-11-15T11:07:32.773Z,96.77
2022-11-15T11:10:17.722Z,96.70
2022-11-15T11:12:54.517Z,84.70
2022-11-15T11:15:25.158Z,82.03
2022-11-15T11:18:16.343Z,90.80
2022-11-15T11:20:48.250Z,89.53
2022-11-15T11:23:28.341Z,92.10
2022-11-15T11:26:06.123Z,88.73
2022-11-15T11:28:42.121Z,85.87
2022-11-15T11:31:22.679Z,89.30
2022-11-15T11:33:59.669Z,79.57
2022-11-15T11:36:31.401Z,83.57
2022-11-15T11:39:07.046Z,81.13
2022-11-15T11:41:47.677Z,74.67
2022-11-15T11:44:27.591Z,79.20
2022-11-15T11:46:58.653Z,73.97
2022-11-15T11:49:32.898Z,93.40
2022-11-15T11:52:05.668Z,78.30
2022-11-15T11:54:39.558Z,87.00
2022-11-15T11:57:15.412Z,79.60
2022-11-15T11:59:46.130Z,76.63
2022-11-15T12:02:18.013Z,73.27
2022-11-15T12:04:53.084Z,67.43
2022-11-15T12:07:25.801Z,64.93
2022-11-15T12:09:57.595Z,71.10
2022-11-15T12:12:31.926Z,66.03
2022-11-15T12:15:03.067Z,75.07
2022-11-15T12:17:33.091Z,60.07
2022-11-15T12:20:02.144Z,63.60
2022-11-15T12:22:38.142Z,70.53
2022-11-15T12:25:09.785Z,65.43
2022-11-15T12:27:43.055Z,69.80
2022-11-15T12:30:14.157Z,71.43
2022-11-15T12:32:58.123Z,64.77
2022-11-15T12:35:29.796Z,67.67
2022-11-15T12:37:58.160Z,62.93
2022-11-15T12:40:28.600Z,64.57
2022-11-15T12:43:05.756Z,66.47
2022-11-15T12:45:35.720Z,70.43
2022-11-15T12:48:57.470Z,63.87
2022-11-15T12:51:58.699Z,57.80
2022-11-15T12:54:55.571Z,60.70
2022-11-15T12:57:43.681Z,63.03
2022-11-15T13:00:52.995Z,63.50
2022-11-15T13:03:31.389Z,55.47
2022-11-15T13:06:35.447Z,54.90
2022-11-15T13:09:03.642Z,54.07
2022-11-15T13:11:46.813Z,50.10
2022-11-15T13:14:44.361Z,52.73
2022-11-15T13:17:25.076Z,48.57
2022-11-15T13:19:58.178Z,54.43
2022-11-15T13:22:44.190Z,57.27
2022-11-15T13:25:21.343Z,50.70
2022-11-15T13:27:55.369Z,52.93
2022-11-15T13:30:24.789Z,56.93
2022-11-15T13:32:55.779Z,50.13
2022-11-15T13:35:25.786Z,52.63
2022-11-15T13:37:54.580Z,60.10
2022-11-15T13:40:25.740Z,56.97
2022-11-15T13:42:53.833Z,59.63
2022-11-15T13:45:22.144Z,60.60
2022-11-15T13:48:01.788Z,61.77
2022-11-15T13:50:34.457Z,55.63
2022-11-15T13:53:05.148Z,56.57
2022-11-15T13:55:34.534Z,58.13
2022-11-15T13:58:07.350Z,58.57
2022-11-15T14:00:38.883Z,49.73
2022-11-15T14:03:15.544Z,51.73
2022-11-15T14:05:44.016Z,50.23
2022-11-15T14:08:25.069Z,44.83
2022-11-15T14:11:09.727Z,49.43
2022-11-15T14:13:37.952Z,50.40
2022-11-15T14:16:17.586Z,52.83
2022-11-15T14:18:56.426Z,46.67
2022-11-15T14:21:24.456Z,45.27
2022-11-15T14:23:53.807Z,52.90
2022-11-15T14:26:30.537Z,47.10
2022-11-15T14:28:58.824Z,53.80
2022-11-15T14:31:27.070Z,53.40
2022-11-15T14:33:56.548Z,50.87
2022-11-15T14:36:24.599Z,53.33
2022-11-15T14:38:55.282Z,55.40
2022-11-15T14:41:24.921Z,56.90
2022-11-15T14:43:55.023Z,64.27
2022-11-15T14:46:23.113Z,66.87
2022-11-15T14:48:53.538Z,58.40
2022-11-15T14:51:22.957Z,65.00
2022-11-15T14:53:56.340Z,66.13
2022-11-15T14:56:24.782Z,66.87
2022-11-15T14:58:55.949Z,64.60
2022-11-15T15:01:26.301Z,67.97
2022-11-15T15:03:56.858Z,70.80
2022-11-15T15:06:26.797Z,76.70
2022-11-15T15:08:54.878Z,68.23
2022-11-15T15:11:24.934Z,65.53
2022-11-15T15:13:57.462Z,71.63
2022-11-15T15:16:25.765Z,68.73
2022-11-15T15:18:54.448Z,65.67
2022-11-15T15:21:24.378Z,66.53
2022-11-15T15:23:56.077Z,69.17
2022-11-15T15:26:24.679Z,63.30
2022-11-15T15:28:53.600Z,65.93
2022-11-15T15:31:21.782Z,59.67
2022-11-15T15:33:50.555Z,65.73
2022-11-15T15:36:20.379Z,58.63
2022-11-15T15:38:56.069Z,67.30
2022-11-15T15:41:25.727Z,58.90
2022-11-15T15:43:54.104Z,68.20
2022-11-15T15:46:22.368Z,57.00
2022-11-15T15:48:52.764Z,60.57
2022-11-15T15:51:21.115Z,61.07
2022-11-15T15:53:53.725Z,65.27
2022-11-15T15:56:21.802Z,68.53
2022-11-15T15:58:54.158Z,61.33
2022-11-15T16:01:22.991Z,65.17
2022-11-15T16:03:53.221Z,59.77
2022-11-15T16:06:40.301Z,62.73
2022-11-15T16:09:15.012Z,59.50
2022-11-15T16:11:44.379Z,61.30
2022-11-15T16:14:16.422Z,58.20
2022-11-15T16:16:44.786Z,66.60
2022-11-15T16:19:13.848Z,59.03
2022-11-15T16:21:42.501Z,64.87
2022-11-15T16:24:10.902Z,56.90
2022-11-15T16:26:39.672Z,63.43
2022-11-15T16:29:10.256Z,63.83
2022-11-15T16:31:40.021Z,61.07
2022-11-15T16:34:08.345Z,61.53
2022-11-15T16:36:37.285Z,60.37
2022-11-15T16:39:06.344Z,60.97
2022-11-15T16:41:34.914Z,56.33
2022-11-15T16:44:09.304Z,62.20
2022-11-15T16:46:40.666Z,60.10
2022-11-15T16:49:17.391Z,54.57
2022-11-15T16:51:47.415Z,51.50
2022-11-15T16:54:16.430Z,53.83
2022-11-15T16:56:48.227Z,53.27
2022-11-15T16:59:20.337Z,51.50
2022-11-15T17:01:57.979Z,53.40
2022-11-15T17:04:34.065Z,52.67
2022-11-15T17:07:02.534Z,53.97
2022-11-15T17:09:33.180Z,55.27
2022-11-15T17:12:03.776Z,57.27
2022-11-15T17:14:32.285Z,55.60
2022-11-15T17:17:01.047Z,54.13
2022-11-15T17:19:31.061Z,57.77
2022-11-15T17:22:00.006Z,56.63
2022-11-15T17:24:28.604Z,54.40
2022-11-15T17:26:59.719Z,58.03
2022-11-15T17:29:28.682Z,53.50
2022-11-15T17:31:58.651Z,54.60
2022-11-15T17:34:28.496Z,59.27
2022-11-15T17:37:00.473Z,63.90
2022-11-15T17:39:28.912Z,57.50
2022-11-15T17:42:01.430Z,55.60
2022-11-15T17:44:30.543Z,55.97
2022-11-15T17:47:01.814Z,61.53
2022-11-15T17:49:30.417Z,60.17
2022-11-15T17:52:02.133Z,61.40
2022-11-15T17:54:31.813Z,56.33
2022-11-15T17:57:02.855Z,58.97
2022-11-15T17:59:34.598Z,56.53
2022-11-15T18:02:03.744Z,58.33
2022-11-15T18:04:33.545Z,62.67
2022-11-15T18:07:03.559Z,59.90
2022-11-15T18:09:32.577Z,60.63
2022-11-15T18:12:01.592Z,58.23
2022-11-15T18:14:30.863Z,52.47
2022-11-15T18:16:59.491Z,54.70
2022-11-15T18:19:31.530Z,57.13
2022-11-15T18:22:01.481Z,53.00
2022-11-15T18:24:33.578Z,56.80
2022-11-15T18:27:07.421Z,58.37
2022-11-15T18:29:38.168Z,51.97
2022-11-15T18:32:15.625Z,53.07
2022-11-15T18:34:44.376Z,52.00
2022-11-15T18:37:13.452Z,52.87
2022-11-15T18:39:53.949Z,52.80
2022-11-15T18:42:26.002Z,52.20
2022-11-15T18:44:56.105Z,56.17
2022-11-15T18:47:24.729Z,53.03
2022-11-15T18:49:58.559Z,53.83
2022-11-15T18:52:28.084Z,57.53
2022-11-15T18:55:07.702Z,44.57
2022-11-15T18:57:36.649Z,53.03
2022-11-15T19:00:11.546Z,50.20
2022-11-15T19:02:40.776Z,52.87
2022-11-15T19:05:10.677Z,56.40
2022-11-15T19:07:41.759Z,45.93
2022-11-15T19:10:13.002Z,48.70
2022-11-15T19:12:41.937Z,42.53
2022-11-15T19:15:12.890Z,46.13
2022-11-15T19:17:44.090Z,45.23
2022-11-15T19:20:13.831Z,45.07
2022-11-15T19:22:46.195Z,35.90
2022-11-15T19:25:20.587Z,41.30
2022-11-15T19:27:56.235Z,40.60
2022-11-15T19:30:28.256Z,36.30
2022-11-15T19:32:56.877Z,41.27
2022-11-15T19:35:26.245Z,38.23
2022-11-15T19:37:55.930Z,41.00
2022-11-15T19:40:37.446Z,35.80
2022-11-15T19:43:08.617Z,43.37
2022-11-15T19:45:38.706Z,34.40
2022-11-15T19:48:08.168Z,36.47
2022-11-15T19:50:45.647Z,36.73
2022-11-15T19:53:15.952Z,38.50
2022-11-15T19:56:03.267Z,35.40
2022-11-15T19:58:45.089Z,38.70
2022-11-15T20:01:24.037Z,38.10
2022-11-15T20:03:57.696Z,36.63
2022-11-15T20:06:30.859Z,37.60
2022-11-15T20:09:02.950Z,37.10
2022-11-15T20:11:34.795Z,35.70
2022-11-15T20:14:05.850Z,36.30
2022-11-15T20:16:35.277Z,33.97
2022-11-15T20:19:04.094Z,41.67
2022-11-15T20:21:36.718Z,38.23
2022-11-15T20:24:06.074Z,39.50
2022-11-15T20:26:39.389Z,36.50
2022-11-15T20:29:10.163Z,39.60
2022-11-15T20:31:40.204Z,38.40
2022-11-15T20:34:10.929Z,37.07
2022-11-15T20:36:40.274Z,36.70
2022-11-15T20:39:10.500Z,40.30
2022-11-15T20:41:40.817Z,40.87
2022-11-15T20:44:11.671Z,40.80
2022-11-15T20:46:41.041Z,48.30
2022-11-15T20:49:12.708Z,48.33
2022-11-15T20:51:41.603Z,42.60
2022-11-15T20:54:11.277Z,46.00
2022-11-15T20:56:42.290Z,54.03
2022-11-15T20:59:16.284Z,47.77
2022-11-15T21:01:47.594Z,51.73
2022-11-15T21:04:18.350Z,46.30
2022-11-15T21:06:48.969Z,50.97
2022-11-15T21:09:39.744Z,48.37
2022-11-15T21:12:15.371Z,49.90
2022-11-15T21:14:46.623Z,50.60
2022-11-15T21:17:16.211Z,51.97
2022-11-15T21:19:45.534Z,52.33
2022-11-15T21:22:15.432Z,49.33
2022-11-15T21:24:43.612Z,51.00
2022-11-15T21:27:16.226Z,51.43
2022-11-15T21:29:45.742Z,51.13
2022-11-15T21:32:14.011Z,53.20
2022-11-15T21:34:42.321Z,55.87
2022-11-15T21:37:12.367Z,45.73
2022-11-15T21:39:40.616Z,43.70
2022-11-15T21:42:11.900Z,46.27
2022-11-15T21:44:41.336Z,43.30
2022-11-15T21:47:10.313Z,45.40
2022-11-15T21:49:38.371Z,45.07
2022-11-15T21:52:07.327Z,41.13
2022-11-15T21:54:35.385Z,43.00
2022-11-15T21:57:04.452Z,44.33
2022-11-15T21:59:32.546Z,43.60
2022-11-15T22:02:15.241Z,39.90
2022-11-15T22:04:46.610Z,39.83
2022-11-15T22:07:14.812Z,43.23
2022-11-15T22:09:44.670Z,41.50
2022-11-15T22:12:15.429Z,47.40
2022-11-15T22:14:43.635Z,38.10
2022-11-15T22:17:16.042Z,34.80
2022-11-15T22:19:52.621Z,39.90
2022-11-15T22:22:21.480Z,40.03
2022-11-15T22:24:52.793Z,39.57
2022-11-15T22:27:23.615Z,44.43
2022-11-15T22:29:53.292Z,37.63
2022-11-15T22:32:23.924Z,41.70
2022-11-15T22:34:55.260Z,41.17
2022-11-15T22:37:24.438Z,36.57
2022-11-15T22:39:53.667Z,42.30
2022-11-15T22:42:23.928Z,41.63
2022-11-15T22:44:52.991Z,38.07
2022-11-15T22:47:23.711Z,38.87
2022-11-15T22:49:57.524Z,41.90
2022-11-15T22:52:26.946Z,41.70
2022-11-15T22:54:55.000Z,35.10
2022-11-15T22:57:25.658Z,33.70
2022-11-15T22:59:55.137Z,41.77
2022-11-15T23:02:23.420Z,40.37
2022-11-15T23:04:54.226Z,36.70
2022-11-15T23:07:26.826Z,41.67
2022-11-15T23:10:15.525Z,42.50
2022-11-15T23:13:01.361Z,43.67
2022-11-15T23:15:55.333Z,38.60
2022-11-15T23:18:23.822Z,37.50
2022-11-15T23:20:53.386Z,40.07
2022-11-15T23:23:24.424Z,41.60
2022-11-15T23:25:59.481Z,37.23
2022-11-15T23:28:30.076Z,40.97
2022-11-15T23:31:21.400Z,40.27
2022-11-15T23:33:58.592Z,40.20
2022-11-15T23:36:27.022Z,39.07
2022-11-15T23:38:56.939Z,37.23
2022-11-15T23:41:26.341Z,41.57
2022-11-15T23:43:57.256Z,42.23
2022-11-15T23:46:27.215Z,43.47
2022-11-15T23:48:58.073Z,42.23
2022-11-15T23:51:26.560Z,43.27
2022-11-15T23:53:56.036Z,41.27
2022-11-15T23:56:25.610Z,41.90
2022-11-15T23:58:56.786Z,45.80
